Time;durP1;ratioP1;P1;durP2;ratioP2;P2;SDS_P1;SDS_P2;PMS_P1;PMS_P2;Temp;Humidity;BMP_temperature;BMP_pressure;BME280_temperature;BME280_humidity;BME280_pressure;Samples;Min_cycle;Max_cycle;Signal;HPM_P1;HPM_P2
2021/10/30 00:01:03;;;;;;;10.00;5.77;;;;;;;21.61;59.00;97153.81;5060417;22;20231;-63
2021/10/30 00:03:30;;;;;;;6.93;5.87;;;;;;;21.61;58.99;97151.28;4985021;28;20325;-63
2021/10/30 00:05:56;;;;;;;10.13;5.93;;;;;;;21.63;59.17;97151.31;4980964;28;20296;-62
2021/10/30 00:08:24;;;;;;;9.77;5.83;;;;;;;21.63;58.78;97157.28;4973505;28;20204;-63
2021/10/30 00:10:51;;;;;;;9.57;6.00;;;;;;;21.63;58.91;97152.19;4981054;28;20257;-63
2021/10/30 00:13:17;;;;;;;6.70;5.77;;;;;;;21.64;59.06;97158.13;4970314;28;20295;-62
2021/10/30 00:15:44;;;;;;;9.63;6.33;;;;;;;21.65;58.85;97152.22;4971332;28;20239;-63
2021/10/30 00:18:10;;;;;;;8.50;5.47;;;;;;;21.64;59.01;97151.34;4972250;28;20234;-63
2021/10/30 00:20:37;;;;;;;7.30;5.63;;;;;;;21.65;59.21;97150.50;4976644;28;20254;-63
2021/10/30 00:23:03;;;;;;;7.70;5.93;;;;;;;21.66;58.86;97153.94;4969805;28;20318;-64
2021/10/30 00:25:30;;;;;;;10.93;6.00;;;;;;;21.67;59.08;97150.53;4969627;28;20294;-62
2021/10/30 00:27:57;;;;;;;6.97;5.60;;;;;;;21.66;59.13;97146.25;4970764;28;20302;-62
2021/10/30 00:30:23;;;;;;;8.10;5.47;;;;;;;21.48;58.82;97120.28;4973293;28;20306;-63
2021/10/30 00:32:50;;;;;;;9.43;5.80;;;;;;;21.67;58.97;97146.28;4971110;28;20328;-63
2021/10/30 00:35:16;;;;;;;6.70;5.20;;;;;;;21.68;58.63;97147.16;4969745;28;20290;-60
2021/10/30 00:37:43;;;;;;;8.87;5.70;;;;;;;21.68;58.92;97144.63;4964381;28;20208;-64
2021/10/30 00:40:11;;;;;;;7.10;5.53;;;;;;;21.68;59.21;97147.16;4972120;28;20298;-63
2021/10/30 00:42:41;;;;;;;7.13;5.50;;;;;;;21.68;59.27;97142.06;4971230;28;20296;-63
2021/10/30 00:45:08;;;;;;;8.23;6.03;;;;;;;21.68;59.29;97139.50;4966917;28;20207;-63
2021/10/30 00:47:35;;;;;;;6.87;5.33;;;;;;;21.69;58.96;97141.22;4970434;28;20205;-63
2021/10/30 00:50:03;;;;;;;7.03;5.60;;;;;;;21.69;58.99;97136.97;4970811;28;20315;-63
2021/10/30 00:52:30;;;;;;;6.73;5.43;;;;;;;21.71;59.37;97129.34;4976055;28;20772;-63
2021/10/30 00:54:57;;;;;;;6.00;5.30;;;;;;;20.80;58.95;96970.44;4975327;28;20254;-63
2021/10/30 00:57:24;;;;;;;10.97;6.07;;;;;;;21.70;59.00;97115.69;4970577;28;20302;-63
2021/10/30 00:59:51;;;;;;;8.30;5.93;;;;;;;21.24;59.23;97040.47;4978395;28;20734;-63
2021/10/30 01:02:18;;;;;;;5.53;4.87;;;;;;;21.02;59.18;97008.44;4962096;28;20334;-62
2021/10/30 01:04:45;;;;;;;7.43;5.57;;;;;;;21.70;59.02;97136.13;4967440;28;20262;-64
2021/10/30 01:07:11;;;;;;;5.47;4.97;;;;;;;21.71;58.67;97130.19;4973676;28;20250;-62
2021/10/30 01:09:38;;;;;;;5.90;5.30;;;;;;;20.75;59.31;96960.97;4980661;28;20676;-63
2021/10/30 01:12:05;;;;;;;8.93;5.03;;;;;;;21.72;59.31;97125.94;4969001;28;20701;-64
2021/10/30 01:14:32;;;;;;;9.80;5.77;;;;;;;21.73;59.16;97114.03;4966267;28;20274;-63
2021/10/30 01:17:03;;;;;;;5.77;5.17;;;;;;;21.72;59.36;97113.16;4970690;28;20306;-63
2021/10/30 01:19:30;;;;;;;6.87;5.30;;;;;;;21.73;59.21;97111.47;4979235;28;20203;-62
2021/10/30 01:21:57;;;;;;;8.03;5.63;;;;;;;21.73;59.22;97106.34;4971128;28;20293;-63
2021/10/30 01:24:23;;;;;;;6.87;5.37;;;;;;;21.73;59.25;97104.63;4970097;28;20703;-64
2021/10/30 01:26:50;;;;;;;10.50;5.70;;;;;;;21.67;59.18;97090.03;4970198;28;20282;-64
2021/10/30 01:29:17;;;;;;;6.17;5.57;;;;;;;21.75;59.18;97102.16;4969365;28;20235;-63
2021/10/30 01:31:43;;;;;;;6.70;5.70;;;;;;;20.77;59.38;96932.06;4977875;28;20258;-63
2021/10/30 01:34:10;;;;;;;5.97;5.37;;;;;;;21.74;59.27;97091.06;4969873;28;20204;-63
2021/10/30 01:36:37;;;;;;;6.93;5.63;;;;;;;21.75;59.40;97091.91;4980166;28;20298;-63
2021/10/30 01:39:05;;;;;;;6.07;5.30;;;;;;;21.75;59.36;97094.47;4970138;28;20664;-63
2021/10/30 01:41:32;;;;;;;6.57;5.60;;;;;;;21.76;59.39;97088.53;4968050;28;20273;-63
2021/10/30 01:43:58;;;;;;;6.43;4.90;;;;;;;21.76;59.05;97093.66;4970622;28;20314;-63
2021/10/30 01:46:25;;;;;;;5.93;5.40;;;;;;;21.75;59.16;97090.22;4967978;28;20235;-62
2021/10/30 01:48:52;;;;;;;6.43;5.83;;;;;;;21.76;59.32;97094.50;4979064;28;20309;-63
2021/10/30 01:51:19;;;;;;;6.07;5.47;;;;;;;21.76;59.31;97084.28;4968042;28;20775;-64
2021/10/30 01:53:46;;;;;;;7.03;5.53;;;;;;;21.76;59.31;97086.00;4980163;28;20199;-63
2021/10/30 01:56:13;;;;;;;6.73;5.67;;;;;;;21.76;59.37;97091.94;4969017;28;20319;-62
2021/10/30 01:58:39;;;;;;;6.87;5.33;;;;;;;21.76;59.25;97097.06;4974187;28;20592;-64
2021/10/30 02:01:06;;;;;;;5.83;5.23;;;;;;;21.77;59.27;97092.81;4977571;28;20322;-62
2021/10/30 02:03:33;;;;;;;5.23;4.70;;;;;;;21.67;59.11;97078.94;4968038;28;20228;-62
2021/10/30 02:06:01;;;;;;;5.90;4.97;;;;;;;21.75;59.23;97092.78;4966810;28;20211;-61
2021/10/30 02:08:29;;;;;;;5.63;5.13;;;;;;;21.75;59.27;97092.78;4967312;28;20235;-63
2021/10/30 02:10:56;;;;;;;5.70;5.00;;;;;;;21.73;59.19;97099.53;4976158;28;20269;-63
2021/10/30 02:13:23;;;;;;;6.37;5.77;;;;;;;21.73;59.27;97091.00;4979979;28;20307;-63
2021/10/30 02:15:50;;;;;;;7.73;5.73;;;;;;;21.73;59.52;97085.88;4977796;28;20316;-62
2021/10/30 02:18:17;;;;;;;5.87;5.27;;;;;;;21.73;59.41;97077.38;4974492;28;20246;-62
2021/10/30 02:20:45;;;;;;;6.87;5.47;;;;;;;21.73;59.42;97061.16;4979044;28;20745;-62
2021/10/30 02:23:12;;;;;;;6.50;5.10;;;;;;;21.73;59.51;97060.31;4972238;28;20338;-62
2021/10/30 02:25:38;;;;;;;5.70;5.20;;;;;;;21.73;59.50;97058.59;4974179;28;20210;-62
2021/10/30 02:28:05;;;;;;;6.10;5.50;;;;;;;21.71;59.28;97061.13;4967853;28;20309;-63
2021/10/30 02:30:35;;;;;;;5.80;5.30;;;;;;;21.71;59.19;97068.78;4977700;28;20227;-62
2021/10/30 02:33:01;;;;;;;5.40;4.90;;;;;;;21.73;59.55;97068.00;4976555;28;20239;-63
2021/10/30 02:35:28;;;;;;;6.23;5.60;;;;;;;21.71;59.37;97061.13;4974984;28;20294;-64
2021/10/30 02:37:55;;;;;;;6.07;5.20;;;;;;;21.71;59.60;97056.00;4982951;28;20637;-64
2021/10/30 02:40:21;;;;;;;5.43;4.93;;;;;;;21.71;59.47;97061.13;4971248;28;20258;-62
2021/10/30 02:42:48;;;;;;;6.13;5.53;;;;;;;21.70;59.88;97051.75;4977242;28;20759;-63
2021/10/30 02:45:14;;;;;;;5.87;5.00;;;;;;;21.71;59.67;97047.50;4973777;28;20318;-64
2021/10/30 02:47:41;;;;;;;6.10;5.10;;;;;;;21.69;59.64;97044.91;4976721;28;20310;-63
2021/10/30 02:50:08;;;;;;;5.70;5.07;;;;;;;21.45;59.84;96992.38;4969684;28;20262;-64
2021/10/30 02:52:34;;;;;;;6.33;5.40;;;;;;;21.69;59.46;97042.34;4971967;28;20212;-63
2021/10/30 02:55:01;;;;;;;5.30;4.80;;;;;;;21.70;59.89;97046.63;4970227;28;20302;-64
2021/10/30 02:57:27;;;;;;;5.47;4.97;;;;;;;21.70;59.69;97035.50;4971688;28;20298;-64
2021/10/30 02:59:54;;;;;;;5.97;5.40;;;;;;;20.73;59.58;96873.22;4977716;28;20756;-63
2021/10/30 03:02:21;;;;;;;5.80;5.23;;;;;;;21.64;59.62;97028.59;4970675;28;20310;-62
2021/10/30 03:04:48;;;;;;;6.30;4.80;;;;;;;21.27;59.80;96956.19;4977347;28;20233;-63
2021/10/30 03:07:14;;;;;;;6.07;5.47;;;;;;;21.70;59.88;97031.28;4973107;28;20262;-63
2021/10/30 03:09:41;;;;;;;5.70;5.20;;;;;;;21.69;59.82;97031.25;4972347;28;20238;-63
2021/10/30 03:12:08;;;;;;;5.63;5.13;;;;;;;21.69;59.69;97032.13;4965186;28;20532;-64
2021/10/30 03:14:34;;;;;;;5.80;5.23;;;;;;;21.70;59.63;97032.97;4971322;28;20583;-63
2021/10/30 03:17:01;;;;;;;5.67;5.17;;;;;;;21.70;59.63;97032.97;4974108;28;20263;-63
2021/10/30 03:19:28;;;;;;;5.10;4.70;;;;;;;21.70;59.76;97032.97;4970999;28;20200;-63
2021/10/30 03:21:54;;;;;;;4.90;4.50;;;;;;;21.69;59.86;97037.22;4972202;28;20330;-63
2021/10/30 03:24:21;;;;;;;5.40;4.90;;;;;;;21.70;59.80;97038.06;4970860;28;20310;-63
2021/10/30 03:26:47;;;;;;;5.03;4.63;;;;;;;20.68;59.65;96850.16;4971606;28;20605;-63
2021/10/30 03:29:14;;;;;;;5.27;4.77;;;;;;;21.69;60.12;97024.44;4976682;28;20289;-63
2021/10/30 03:31:40;;;;;;;5.80;5.30;;;;;;;21.70;59.78;97040.63;4969983;28;20315;-62
2021/10/30 03:34:07;;;;;;;5.40;4.90;;;;;;;21.62;60.02;97009.78;4972335;28;20203;-64
2021/10/30 03:36:34;;;;;;;5.27;4.77;;;;;;;21.65;59.80;97009.84;4972731;28;20240;-63
2021/10/30 03:39:00;;;;;;;5.80;5.30;;;;;;;21.64;59.71;97007.25;4970184;28;20232;-63
2021/10/30 03:41:27;;;;;;;5.50;4.97;;;;;;;21.68;59.92;97032.09;4970452;28;20255;-63
2021/10/30 03:43:54;;;;;;;5.60;5.10;;;;;;;21.59;60.17;96991.81;4971875;28;20944;-64
2021/10/30 03:46:21;;;;;;;6.33;5.73;;;;;;;20.80;59.87;96852.09;4977763;28;20241;-63
2021/10/30 03:48:47;;;;;;;5.87;5.27;;;;;;;21.68;59.98;97017.59;4972237;28;20302;-63
2021/10/30 03:51:14;;;;;;;5.47;4.97;;;;;;;21.67;59.98;97015.88;4976501;28;20250;-64
2021/10/30 03:53:41;;;;;;;5.60;5.10;;;;;;;21.68;60.00;97019.28;4972378;28;20704;-63
2021/10/30 03:56:07;;;;;;;5.40;4.90;;;;;;;21.37;60.19;96966.66;4973487;28;20875;-63
2021/10/30 03:58:35;;;;;;;4.90;4.50;;;;;;;21.69;59.47;97023.56;4980560;28;20235;-63
2021/10/30 04:01:01;;;;;;;5.67;5.13;;;;;;;21.67;59.99;97010.75;4974619;28;20369;-61
2021/10/30 04:03:29;;;;;;;5.07;4.60;;;;;;;21.67;59.96;97008.19;4977996;28;20586;-63
2021/10/30 04:06:01;;;;;;;5.20;4.70;;;;;;;21.67;59.68;97003.09;4969565;28;20230;-64
2021/10/30 04:08:27;;;;;;;5.10;4.60;;;;;;;21.67;59.98;97000.53;4968129;28;20618;-61
2021/10/30 04:10:54;;;;;;;5.50;5.00;;;;;;;21.67;60.28;96991.97;4975615;28;20329;-63
2021/10/30 04:13:21;;;;;;;5.80;5.30;;;;;;;21.66;59.87;96993.69;4969282;28;20243;-64
2021/10/30 04:15:48;;;;;;;5.20;4.73;;;;;;;21.61;60.09;96987.63;4970852;28;20250;-63
2021/10/30 04:18:14;;;;;;;5.27;4.77;;;;;;;21.65;60.16;96999.63;4977427;28;20215;-63
2021/10/30 04:20:41;;;;;;;5.53;5.03;;;;;;;21.66;60.05;96998.81;4971139;28;20314;-63
2021/10/30 04:23:07;;;;;;;5.90;4.87;;;;;;;21.65;60.26;96991.94;4969797;28;20266;-63
2021/10/30 04:25:34;;;;;;;4.77;4.37;;;;;;;21.66;59.88;96985.16;4968839;28;20318;-63
2021/10/30 04:28:01;;;;;;;5.70;5.20;;;;;;;21.66;60.15;96986.03;4970304;28;20242;-63
2021/10/30 04:30:27;;;;;;;5.47;4.97;;;;;;;21.65;60.06;96974.03;4970212;28;20310;-63
2021/10/30 04:32:54;;;;;;;5.40;4.90;;;;;;;21.59;59.93;96968.81;4969467;28;20757;-63
2021/10/30 04:35:22;;;;;;;5.50;5.00;;;;;;;21.65;59.96;96973.22;4977372;28;20246;-63
2021/10/30 04:37:48;;;;;;;5.00;4.60;;;;;;;21.65;59.94;96986.00;4970444;28;20226;-64
2021/10/30 04:40:15;;;;;;;5.57;5.07;;;;;;;21.64;60.06;96982.56;4964529;28;20295;-65
2021/10/30 04:42:42;;;;;;;5.73;5.23;;;;;;;21.65;60.12;96973.22;4971189;28;20199;-64
2021/10/30 04:45:08;;;;;;;5.23;4.73;;;;;;;21.65;60.00;96965.53;4971162;28;20223;-63
2021/10/30 04:47:35;;;;;;;5.90;4.90;;;;;;;21.64;60.15;96959.53;4971676;28;20298;-63
2021/10/30 04:50:02;;;;;;;5.30;4.80;;;;;;;21.64;60.33;96967.22;4971975;28;20804;-63
2021/10/30 04:52:28;;;;;;;5.20;4.77;;;;;;;21.64;60.24;96956.13;4976079;28;20207;-63
2021/10/30 04:54:55;;;;;;;5.23;4.80;;;;;;;21.64;59.73;96962.09;4967761;28;20238;-63
2021/10/30 04:57:21;;;;;;;5.00;4.60;;;;;;;21.64;60.23;96957.00;4974230;28;20215;-63
2021/10/30 04:59:48;;;;;;;4.93;4.53;;;;;;;21.63;60.30;96955.28;4973286;28;20243;-63
2021/10/30 05:02:15;;;;;;;5.30;4.80;;;;;;;21.65;60.38;96955.31;4976922;28;20269;-63
2021/10/30 05:04:41;;;;;;;8.33;7.33;;;;;;;21.62;56.39;96943.31;4971126;28;20227;-62
2021/10/30 05:07:08;;;;;;;16.10;14.23;;;;;;;21.59;50.35;96944.97;4966572;28;20203;-63
2021/10/30 05:09:35;;;;;;;18.97;14.17;;;;;;;21.56;49.88;96937.22;4972737;28;20707;-64
2021/10/30 05:12:01;;;;;;;15.90;13.70;;;;;;;21.54;50.00;96937.19;4969529;28;20310;-64
2021/10/30 05:14:28;;;;;;;17.87;13.17;;;;;;;21.53;51.26;96932.88;4968564;28;20242;-64
2021/10/30 05:16:54;;;;;;;15.23;13.27;;;;;;;21.52;51.65;96931.19;4978390;28;20235;-63
2021/10/30 05:19:21;;;;;;;18.73;13.23;;;;;;;21.52;52.50;96922.63;4968188;28;20204;-63
2021/10/30 05:21:47;;;;;;;13.30;11.90;;;;;;;21.52;52.98;96922.63;4972777;28;20262;-63
2021/10/30 05:24:14;;;;;;;13.63;12.23;;;;;;;21.50;53.49;96917.50;4973569;28;20239;-65
2021/10/30 05:26:41;;;;;;;12.13;10.90;;;;;;;21.52;53.56;96920.06;4970511;28;20203;-62
2021/10/30 05:29:07;;;;;;;15.17;11.00;;;;;;;21.50;54.57;96917.50;4972017;28;20306;-63
2021/10/30 05:31:34;;;;;;;12.60;11.30;;;;;;;21.50;54.36;96916.66;4968715;28;20314;-64
2021/10/30 05:34:04;;;;;;;13.73;10.77;;;;;;;21.49;54.67;96920.88;4976683;28;20306;-63
2021/10/30 05:36:33;;;;;;;13.70;10.80;;;;;;;21.51;54.83;96915.81;4968913;28;20230;-64
2021/10/30 05:39:00;;;;;;;11.23;10.03;;;;;;;21.51;55.26;96913.25;4971665;28;20242;-64
2021/10/30 05:41:27;;;;;;;12.70;10.57;;;;;;;21.51;55.92;96906.44;4971783;28;20301;-64
2021/10/30 05:43:53;;;;;;;11.53;10.43;;;;;;;21.52;55.73;96899.63;4970365;28;20663;-63
2021/10/30 05:46:20;;;;;;;12.40;11.00;;;;;;;21.53;56.06;96907.31;4976694;28;20771;-61
2021/10/30 05:48:47;;;;;;;11.40;9.97;;;;;;;21.53;55.94;96906.47;4973365;28;20594;-63
2021/10/30 05:51:13;;;;;;;11.33;10.10;;;;;;;21.52;55.93;96900.50;4977340;28;20306;-64
2021/10/30 05:53:40;;;;;;;11.13;9.27;;;;;;;21.53;55.97;96902.22;4973392;28;20292;-63
2021/10/30 05:56:07;;;;;;;11.00;9.90;;;;;;;21.53;56.17;96893.69;4962792;28;20203;-62
2021/10/30 05:58:34;;;;;;;9.97;8.97;;;;;;;21.52;56.04;96894.50;4971880;28;20303;-62
2021/10/30 06:01:00;;;;;;;10.07;9.13;;;;;;;21.52;56.27;96890.28;4971412;28;20298;-63
2021/10/30 06:03:28;;;;;;;11.80;9.07;;;;;;;21.40;56.31;96874.69;5002639;22;20194;-68
2021/10/30 06:05:54;;;;;;;12.07;9.67;;;;;;;21.52;56.50;96882.59;4984943;28;20227;-68
2021/10/30 06:08:21;;;;;;;10.50;9.50;;;;;;;21.48;56.53;96868.03;5000987;28;20202;-70
2021/10/30 06:10:48;;;;;;;10.70;9.60;;;;;;;21.48;57.20;96855.25;4981275;28;20203;-68
2021/10/30 06:13:14;;;;;;;9.87;8.77;;;;;;;21.52;56.63;96851.91;4989787;28;20298;-69
2021/10/30 06:15:41;;;;;;;10.97;9.13;;;;;;;21.53;56.52;96868.97;4992042;28;20234;-66
2021/10/30 06:18:07;;;;;;;10.03;9.07;;;;;;;21.54;56.44;96865.59;4990784;28;20228;-68
2021/10/30 06:20:34;;;;;;;9.40;8.13;;;;;;;21.55;56.54;96861.31;4992401;28;20294;-67
2021/10/30 06:23:02;;;;;;;9.60;7.60;;;;;;;21.55;56.53;96862.19;4990689;28;20206;-66
2021/10/30 06:25:29;;;;;;;8.30;7.50;;;;;;;21.55;56.42;96856.22;4991098;28;20258;-67
2021/10/30 06:27:55;;;;;;;8.00;7.20;;;;;;;21.56;56.76;96845.19;4976133;28;20317;-69
2021/10/30 06:30:22;;;;;;;7.13;6.40;;;;;;;21.56;56.70;96842.63;4998017;28;20207;-65
2021/10/30 06:32:48;;;;;;;7.10;6.40;;;;;;;21.54;56.65;96834.91;4992294;28;20924;-66
2021/10/30 06:35:16;;;;;;;6.77;6.07;;;;;;;21.55;56.90;96831.53;4998537;28;20254;-64
2021/10/30 06:37:43;;;;;;;10.40;9.30;;;;;;;21.56;55.34;96837.50;4972889;28;20246;-67
2021/10/30 06:40:11;;;;;;;12.53;10.20;;;;;;;21.48;55.31;96818.59;4971004;28;20293;-67
2021/10/30 06:42:37;;;;;;;10.07;9.00;;;;;;;21.45;55.38;96811.75;4957244;28;20262;-67
2021/10/30 06:45:04;;;;;;;9.03;8.13;;;;;;;21.55;54.75;96820.41;4964657;28;20270;-66
2021/10/30 06:47:31;;;;;;;8.73;7.80;;;;;;;21.47;55.06;96819.44;4969473;28;20665;-67
2021/10/30 06:49:59;;;;;;;11.20;10.07;;;;;;;21.57;54.34;96836.66;4981955;28;20206;-67
2021/10/30 06:52:36;;;;;;;15.53;13.20;;;;;;;21.53;50.78;96840.84;4972613;28;20274;-67
2021/10/30 06:55:06;;;;;;;15.97;14.27;;;;;;;21.54;48.68;96844.28;4986176;28;20257;-66
2021/10/30 06:57:33;;;;;;;19.27;15.50;;;;;;;21.51;47.16;96836.56;4988394;28;20262;-66
2021/10/30 06:59:59;;;;;;;21.27;14.53;;;;;;;21.43;47.31;96818.50;4992312;28;20285;-65
2021/10/30 07:02:27;;;;;;;15.83;13.53;;;;;;;21.51;47.79;96839.09;4963026;28;20370;-66
2021/10/30 07:04:54;;;;;;;15.43;13.83;;;;;;;21.44;48.69;96832.16;4961312;28;20322;-67
2021/10/30 07:07:20;;;;;;;16.20;14.50;;;;;;;21.52;48.96;96834.03;4966964;28;20241;-67
2021/10/30 07:09:47;;;;;;;15.33;13.67;;;;;;;21.52;49.54;96836.56;4971554;28;20283;-66
2021/10/30 07:12:14;;;;;;;14.80;13.30;;;;;;;21.52;49.97;96851.03;4968524;28;20324;-66
2021/10/30 07:14:47;;;;;;;14.90;13.40;;;;;;;21.51;50.54;96855.31;4991610;28;20304;-63
2021/10/30 07:17:14;;;;;;;14.97;13.40;;;;;;;21.51;50.43;96870.66;4980969;28;20264;-66
2021/10/30 07:19:41;;;;;;;13.77;12.37;;;;;;;21.39;50.68;96832.09;4974106;28;20235;-66
2021/10/30 07:22:07;;;;;;;14.40;12.90;;;;;;;21.45;50.78;96846.66;4957670;28;20301;-66
2021/10/30 07:24:34;;;;;;;14.57;12.37;;;;;;;21.44;51.06;96843.22;4941981;28;20777;-67
2021/10/30 07:27:00;;;;;;;15.43;13.10;;;;;;;21.52;51.51;96862.16;4985529;28;20258;-66
2021/10/30 07:29:27;;;;;;;13.23;11.63;;;;;;;21.53;51.24;96848.50;4991326;28;20680;-69
2021/10/30 07:31:53;;;;;;;13.17;11.53;;;;;;;21.54;51.21;96841.72;4989391;28;20241;-67
2021/10/30 07:34:20;;;;;;;13.43;11.40;;;;;;;21.55;51.24;96839.19;4989868;28;20262;-68
2021/10/30 07:36:47;;;;;;;13.90;12.20;;;;;;;21.47;51.55;96827.94;4973739;28;20617;-67
2021/10/30 07:39:14;;;;;;;16.07;11.63;;;;;;;21.22;51.20;96782.34;4985693;28;20238;-67
2021/10/30 07:41:41;;;;;;;12.07;10.87;;;;;;;21.59;51.36;96852.91;4972009;28;20239;-69
2021/10/30 07:44:09;;;;;;;13.00;11.70;;;;;;;21.59;50.10;96840.97;4987045;28;20264;-64
2021/10/30 07:46:36;;;;;;;17.20;13.07;;;;;;;21.54;48.72;96831.50;4991403;28;20315;-64
2021/10/30 07:49:02;;;;;;;15.50;12.70;;;;;;;21.58;48.54;96846.91;4988495;28;20242;-67
2021/10/30 07:51:29;;;;;;;16.77;12.83;;;;;;;21.55;48.85;96825.53;4991437;28;20287;-65
2021/10/30 07:53:55;;;;;;;18.27;13.27;;;;;;;21.60;49.13;96818.81;4992665;28;20258;-66
2021/10/30 07:56:22;;;;;;;15.20;13.60;;;;;;;21.57;49.62;96824.75;4988545;28;20289;-62
2021/10/30 07:58:49;;;;;;;15.00;13.07;;;;;;;21.60;49.81;96822.25;4992934;28;20290;-68
2021/10/30 08:01:16;;;;;;;18.67;11.80;;;;;;;21.61;48.38;96821.41;4987724;28;20203;-67
2021/10/30 08:03:42;;;;;;;18.17;12.50;;;;;;;21.54;48.78;96811.03;4990004;28;20234;-68
2021/10/30 08:06:09;;;;;;;13.60;11.00;;;;;;;21.60;48.67;96824.81;4956490;28;20806;-68
2021/10/30 08:08:36;;;;;;;14.03;11.43;;;;;;;21.55;48.39;96795.72;4991639;28;20675;-69
2021/10/30 08:11:02;;;;;;;12.27;11.07;;;;;;;21.58;48.70;96808.56;4987673;28;20305;-67
2021/10/30 08:13:29;;;;;;;14.43;10.60;;;;;;;21.57;48.91;96778.72;4988814;28;20309;-66
2021/10/30 08:15:55;;;;;;;12.50;9.30;;;;;;;21.54;49.21;96791.47;4973805;28;20234;-68
2021/10/30 08:18:22;;;;;;;11.10;9.50;;;;;;;21.26;50.06;96730.44;4964714;28;20286;-68
2021/10/30 08:20:53;;;;;;;11.13;9.93;;;;;;;21.27;50.31;96726.19;4992668;28;20242;-67
2021/10/30 08:23:20;;;;;;;10.30;9.30;;;;;;;21.58;50.29;96777.00;4953883;28;20203;-67
2021/10/30 08:25:47;;;;;;;11.00;9.50;;;;;;;21.60;50.93;96739.56;4991076;28;20261;-66
2021/10/30 08:28:14;;;;;;;11.50;9.50;;;;;;;21.60;51.04;96737.00;4988637;28;20290;-67
2021/10/30 08:30:40;;;;;;;12.47;8.87;;;;;;;21.61;51.40;96767.72;4984919;28;20889;-66
2021/10/30 08:33:11;;;;;;;9.67;8.37;;;;;;;21.61;51.54;96754.06;4965913;28;21070;-68
2021/10/30 08:35:38;;;;;;;11.30;8.67;;;;;;;21.63;51.67;96776.28;4979949;28;20247;-66
2021/10/30 08:38:09;;;;;;;8.80;7.97;;;;;;;21.45;52.34;96740.16;4967183;28;20579;-67
2021/10/30 08:40:37;;;;;;;10.07;8.77;;;;;;;21.66;52.25;96763.53;4985723;28;20199;-68
2021/10/30 08:43:18;;;;;;;9.30;7.97;;;;;;;21.67;52.44;96755.03;4950188;28;20227;-68
2021/10/30 08:45:45;;;;;;;9.27;7.90;;;;;;;21.51;52.61;96704.47;4970119;28;20269;-68
2021/10/30 08:48:11;;;;;;;10.80;8.10;;;;;;;21.69;52.89;96712.44;4957211;28;20238;-67
2021/10/30 08:50:38;;;;;;;8.67;7.63;;;;;;;21.58;52.75;96695.19;4960684;28;20277;-68
2021/10/30 08:53:05;;;;;;;10.63;9.00;;;;;;;21.67;51.70;96728.59;4970043;28;20286;-67
2021/10/30 08:55:31;;;;;;;11.70;9.40;;;;;;;21.05;51.39;96642.34;4985396;28;20717;-66
2021/10/30 08:58:27;;;;;;;11.50;8.27;;;;;;;21.71;51.83;96741.44;4992294;28;20214;-68
2021/10/30 09:00:55;;;;;;;14.33;8.60;;;;;;;21.73;51.85;96732.97;4982038;28;20851;-67
2021/10/30 09:03:23;;;;;;;9.23;8.30;;;;;;;21.73;52.26;96717.63;4987438;28;20203;-67
2021/10/30 09:05:54;;;;;;;8.80;7.90;;;;;;;21.75;52.44;96728.75;4988477;28;20240;-67
2021/10/30 09:08:24;;;;;;;9.17;8.27;;;;;;;21.74;52.50;96720.22;4990913;28;20290;-68
2021/10/30 09:10:52;;;;;;;9.67;8.10;;;;;;;21.75;52.47;96716.81;4975892;28;20202;-67
2021/10/30 09:13:19;;;;;;;12.50;7.77;;;;;;;21.60;52.63;96690.97;4986840;28;20729;-68
2021/10/30 09:15:50;;;;;;;8.17;7.30;;;;;;;20.78;52.51;96571.19;4989996;28;20241;-66
2021/10/30 09:18:36;;;;;;;8.73;7.83;;;;;;;21.79;52.78;96733.94;4988966;28;20206;-66
2021/10/30 09:21:03;;;;;;;10.30;7.97;;;;;;;21.80;53.14;96737.34;4990470;28;20202;-67
2021/10/30 09:23:33;;;;;;;8.60;7.30;;;;;;;21.80;52.83;96727.13;4993877;28;20203;-65
2021/10/30 09:26:09;;;;;;;12.10;7.87;;;;;;;21.55;53.06;96713.91;4992317;28;20256;-68
2021/10/30 09:28:47;;;;;;;13.73;7.80;;;;;;;21.83;53.14;96747.63;4990035;28;20686;-66
2021/10/30 09:31:14;;;;;;;13.30;7.27;;;;;;;21.82;53.10;96748.47;4984627;28;20270;-67
2021/10/30 09:34:04;;;;;;;8.70;6.90;;;;;;;21.78;53.25;96727.09;4977491;28;20844;-66
2021/10/30 09:36:35;;;;;;;9.20;6.83;;;;;;;21.77;53.28;96715.16;4972730;28;20234;-67
2021/10/30 09:39:08;;;;;;;9.53;7.07;;;;;;;21.79;53.28;96731.38;4972692;28;20206;-67
2021/10/30 09:41:39;;;;;;;10.10;7.30;;;;;;;21.71;53.39;96723.53;4988287;28;20206;-64
2021/10/30 09:44:11;;;;;;;7.83;6.60;;;;;;;21.78;53.48;96733.91;4989189;28;20254;-66
2021/10/30 09:46:43;;;;;;;10.17;7.57;;;;;;;21.77;53.73;96717.72;4987221;28;20223;-67
2021/10/30 09:49:27;;;;;;;13.30;6.90;;;;;;;21.70;53.83;96685.16;4982140;28;20245;-68
2021/10/30 09:52:13;;;;;;;11.73;6.93;;;;;;;21.77;53.84;96719.41;4962220;28;20245;-67
2021/10/30 09:54:47;;;;;;;9.07;6.40;;;;;;;21.73;53.87;96696.31;4988012;28;20254;-65
2021/10/30 09:57:15;;;;;;;8.23;6.97;;;;;;;21.75;54.05;96715.94;4987902;28;20281;-66
2021/10/30 09:59:42;;;;;;;14.03;6.50;;;;;;;21.77;53.89;96694.69;4994239;28;20312;-68
2021/10/30 10:02:09;;;;;;;11.00;6.83;;;;;;;21.79;54.21;96710.06;4987563;28;20238;-66
2021/10/30 10:04:36;;;;;;;11.73;7.00;;;;;;;21.53;54.19;96671.28;4978848;28;20270;-66
2021/10/30 10:07:03;;;;;;;9.70;6.27;;;;;;;21.65;54.50;96666.34;4940573;28;20231;-65
2021/10/30 10:09:30;;;;;;;8.37;6.27;;;;;;;21.78;54.26;96704.09;4957858;28;20261;-66
2021/10/30 10:11:56;;;;;;;9.53;6.53;;;;;;;21.76;54.26;96657.16;4979230;28;20217;-65
2021/10/30 10:14:23;;;;;;;8.57;6.07;;;;;;;21.79;54.32;96692.16;4962277;28;20724;-67
2021/10/30 10:16:54;;;;;;;9.27;6.37;;;;;;;21.79;54.13;96676.81;4968697;28;20289;-66
2021/10/30 10:19:21;;;;;;;8.43;6.00;;;;;;;20.97;54.42;96523.88;4986996;28;20235;-67
2021/10/30 10:21:48;;;;;;;7.33;6.00;;;;;;;21.71;54.23;96669.84;4983770;28;20438;-67
2021/10/30 10:24:17;;;;;;;8.93;5.40;;;;;;;21.79;54.41;96648.69;4943679;28;20259;-66
2021/10/30 10:26:52;;;;;;;7.23;5.60;;;;;;;21.76;54.37;96662.25;4978524;28;20709;-68
2021/10/30 10:29:37;;;;;;;8.50;6.03;;;;;;;21.79;54.42;96679.38;4981414;28;20289;-68
2021/10/30 10:32:21;;;;;;;7.80;5.90;;;;;;;21.80;54.41;96668.28;4979615;28;20195;-66
2021/10/30 10:34:49;;;;;;;5.87;5.27;;;;;;;20.99;54.51;96517.09;4985951;28;20342;-67
2021/10/30 10:37:21;;;;;;;6.77;6.03;;;;;;;21.79;54.42;96657.19;4986565;28;20260;-66
2021/10/30 10:39:49;;;;;;;7.47;5.77;;;;;;;21.68;54.57;96628.03;4986426;28;20736;-69
2021/10/30 10:42:40;;;;;;;8.13;5.37;;;;;;;21.79;54.63;96643.56;4987171;28;20756;-67
2021/10/30 10:45:07;;;;;;;6.70;5.53;;;;;;;21.79;54.59;96641.00;4971146;28;20250;-66
2021/10/30 10:47:40;;;;;;;6.53;5.40;;;;;;;21.79;54.79;96644.41;4984863;28;20229;-69
2021/10/30 10:50:13;;;;;;;6.20;5.57;;;;;;;21.78;54.81;96637.59;4983212;28;20241;-68
2021/10/30 10:53:12;;;;;;;7.00;5.60;;;;;;;21.78;54.89;96642.69;4971063;28;20787;-67
2021/10/30 10:55:45;;;;;;;9.77;5.40;;;;;;;21.79;54.85;96634.19;4970183;28;20211;-67
2021/10/30 10:58:13;;;;;;;6.73;5.17;;;;;;;21.70;54.90;96606.75;4984833;28;20238;-67
2021/10/30 11:00:59;;;;;;;6.20;5.17;;;;;;;21.78;54.95;96621.38;4968826;28;20945;-66
2021/10/30 11:03:27;;;;;;;6.63;5.57;;;;;;;21.78;54.89;96623.94;4992378;28;20268;-68
2021/10/30 11:05:58;;;;;;;7.43;5.47;;;;;;;21.78;54.90;96627.34;4972701;28;20555;-68
2021/10/30 11:08:28;;;;;;;6.63;4.87;;;;;;;21.79;55.10;96612.88;4986935;28;20211;-68
2021/10/30 11:11:07;;;;;;;7.10;5.73;;;;;;;21.68;54.91;96594.78;4987993;28;20711;-68
2021/10/30 11:13:34;;;;;;;6.07;5.27;;;;;;;21.80;54.53;96604.34;4984300;28;21054;-67
2021/10/30 11:16:01;;;;;;;8.97;6.37;;;;;;;21.75;54.42;96593.19;4996782;28;20233;-66
2021/10/30 11:21:16;;;;;;;6.90;6.20;;;;;;;20.91;54.25;96455.66;4992741;28;20260;-66
2021/10/30 11:23:45;;;;;;;7.27;6.57;;;;;;;21.82;54.15;96597.56;4992902;28;20226;-64
2021/10/30 11:26:22;;;;;;;7.33;6.57;;;;;;;20.87;54.03;96440.25;4972082;28;20257;-66
2021/10/30 11:28:49;;;;;;;7.43;6.27;;;;;;;21.75;54.04;96582.97;4960412;28;20229;-67
2021/10/30 11:31:18;;;;;;;6.67;6.00;;;;;;;21.85;54.03;96597.63;4991826;28;20257;-67
2021/10/30 11:33:45;;;;;;;8.00;7.20;;;;;;;21.86;53.69;96599.31;4997047;28;20254;-66
2021/10/30 11:36:13;;;;;;;7.40;6.70;;;;;;;21.87;53.65;96593.41;4972200;28;20200;-69